Time;durP1;ratioP1;P1;durP2;ratioP2;P2;SDS_P1;SDS_P2;PMS_P1;PMS_P2;Temp;Humidity;BMP_temperature;BMP_pressure;BME280_temperature;BME280_humidity;BME280_pressure;Samples;Min_cycle;Max_cycle;Signal;HPM_P1;HPM_P2
2024/02/13 00:00:09;;;;;;;1.97;1.40;;;;;;;7.48;100.00;96070.56;5038813;28;20212;-69
2024/02/13 00:02:36;;;;;;;2.70;1.60;;;;;;;7.31;100.00;96077.59;5038616;28;20225;-69
2024/02/13 00:05:02;;;;;;;2.67;2.10;;;;;;;7.25;100.00;96076.59;5040103;28;20205;-69
2024/02/13 00:07:30;;;;;;;1.47;1.33;;;;;;;7.31;100.00;96085.44;5039061;28;20383;-69
2024/02/13 00:09:56;;;;;;;2.73;1.20;;;;;;;7.28;100.00;96082.34;5038790;28;20852;-69
2024/02/13 00:12:23;;;;;;;4.57;1.83;;;;;;;7.39;100.00;96095.13;5039063;28;20315;-69
2024/02/13 00:14:49;;;;;;;3.67;1.50;;;;;;;7.41;100.00;96094.00;5039244;28;20210;-69
2024/02/13 00:17:17;;;;;;;2.63;1.10;;;;;;;7.32;100.00;96100.19;5039623;28;20201;-70
2024/02/13 00:19:43;;;;;;;2.20;1.27;;;;;;;7.28;100.00;96098.88;5038246;28;20559;-70
2024/02/13 00:22:12;;;;;;;2.17;1.50;;;;;;;7.08;100.00;96107.19;5038190;28;20557;-69
2024/02/13 00:24:40;;;;;;;2.93;1.77;;;;;;;7.13;100.00;96109.31;5038859;28;20660;-70
2024/02/13 00:27:06;;;;;;;1.90;1.37;;;;;;;7.04;100.00;96115.50;5039235;28;20228;-70
2024/02/13 00:29:33;;;;;;;5.13;1.37;;;;;;;6.84;100.00;96120.19;5039627;28;20579;-69
2024/02/13 00:32:00;;;;;;;3.80;1.20;;;;;;;7.08;100.00;96122.09;5037837;28;20266;-69
2024/02/13 00:34:27;;;;;;;6.87;1.60;;;;;;;7.14;100.00;96118.81;5038827;28;20569;-69
2024/02/13 00:36:53;;;;;;;5.00;1.90;;;;;;;7.05;100.00;96127.63;5038994;28;20594;-69
2024/02/13 00:39:20;;;;;;;1.53;1.33;;;;;;;7.08;100.00;96127.34;5039239;28;20212;-69
2024/02/13 00:41:50;;;;;;;2.50;1.47;;;;;;;7.27;100.00;96133.94;5037880;28;20608;-69
2024/02/13 00:44:16;;;;;;;3.63;1.40;;;;;;;7.25;100.00;96131.63;5039175;28;20639;-69
2024/02/13 00:46:43;;;;;;;4.37;1.50;;;;;;;7.26;100.00;96127.03;5038614;28;20653;-69
2024/02/13 00:49:09;;;;;;;6.07;1.60;;;;;;;7.35;100.00;96135.75;5038567;28;20264;-69
2024/02/13 00:51:36;;;;;;;3.50;1.40;;;;;;;7.35;100.00;96138.38;5036893;28;20236;-69
2024/02/13 00:54:02;;;;;;;6.47;1.63;;;;;;;7.44;100.00;96138.22;5038595;28;20201;-69
2024/02/13 00:56:29;;;;;;;5.77;2.00;;;;;;;7.46;100.00;96154.63;5038624;28;20513;-69
2024/02/13 00:59:03;;;;;;;2.73;1.43;;;;;;;7.61;100.00;96153.03;5037950;28;20593;-69
2024/02/13 01:01:30;;;;;;;7.90;1.50;;;;;;;7.53;100.00;96157.44;5038153;28;20235;-70
2024/02/13 01:03:56;;;;;;;5.33;2.00;;;;;;;7.60;100.00;96159.25;5037900;28;20715;-69
2024/02/13 01:06:23;;;;;;;2.20;1.53;;;;;;;7.64;100.00;96163.19;5038041;28;20555;-69
2024/02/13 01:08:49;;;;;;;4.37;1.70;;;;;;;7.68;100.00;96172.38;5038016;28;20205;-69
2024/02/13 01:11:17;;;;;;;1.70;1.17;;;;;;;7.61;100.00;96166.16;5038179;28;20742;-70
2024/02/13 01:13:44;;;;;;;1.70;1.30;;;;;;;7.64;100.00;96170.25;5037583;28;20201;-70
2024/02/13 01:16:14;;;;;;;2.27;1.23;;;;;;;7.80;100.00;96173.69;5038131;28;20373;-69
2024/02/13 01:18:41;;;;;;;6.07;1.50;;;;;;;7.46;100.00;96180.84;5038282;28;20201;-67
2024/02/13 01:21:11;;;;;;;1.80;1.10;;;;;;;7.30;100.00;96180.78;5036485;28;20225;-69
2024/02/13 01:23:38;;;;;;;1.60;1.00;;;;;;;7.26;100.00;96186.50;5037756;28;20228;-69
2024/02/13 01:26:04;;;;;;;5.30;1.27;;;;;;;7.33;100.00;96198.81;5037897;28;20202;-69
2024/02/13 01:28:33;;;;;;;1.33;1.00;;;;;;;7.27;100.00;96191.59;5037745;28;20882;-69
2024/02/13 01:31:02;;;;;;;8.03;1.67;;;;;;;7.36;100.00;96195.88;5036960;28;20666;-69
2024/02/13 01:33:30;;;;;;;2.17;1.10;;;;;;;7.37;100.00;96200.16;5037836;28;20663;-69
2024/02/13 01:35:56;;;;;;;1.67;1.00;;;;;;;7.11;100.00;96213.47;5037176;28;20203;-69
2024/02/13 01:38:23;;;;;;;2.03;1.30;;;;;;;6.98;100.00;96215.69;5036915;28;20209;-69
2024/02/13 01:40:49;;;;;;;4.53;1.20;;;;;;;7.17;100.00;96215.47;5037013;28;20863;-69
2024/02/13 01:43:16;;;;;;;1.97;0.97;;;;;;;7.15;100.00;96214.78;5037536;28;20626;-69
2024/02/13 01:45:42;;;;;;;1.97;1.17;;;;;;;6.91;100.00;96227.75;5037115;28;20205;-69
2024/02/13 01:48:10;;;;;;;2.70;1.20;;;;;;;6.86;100.00;96232.63;5037383;28;20828;-69
2024/02/13 01:50:38;;;;;;;1.70;1.10;;;;;;;7.10;100.00;96223.09;5035501;28;20257;-69
2024/02/13 01:53:05;;;;;;;1.63;1.17;;;;;;;6.96;100.00;96228.94;5036905;28;20193;-68
2024/02/13 01:55:34;;;;;;;3.03;1.40;;;;;;;7.11;100.00;96231.81;5037974;28;20274;-69
2024/02/13 01:58:04;;;;;;;2.33;1.10;;;;;;;7.04;100.00;96231.59;5037397;28;20647;-69
2024/02/13 02:00:33;;;;;;;4.33;1.50;;;;;;;7.14;100.00;96232.31;5036688;28;20224;-69
2024/02/13 02:03:01;;;;;;;3.60;1.57;;;;;;;6.97;100.00;96238.44;5037161;28;20225;-69
2024/02/13 02:05:28;;;;;;;3.77;1.83;;;;;;;6.99;100.00;96240.91;5036420;28;20621;-69
2024/02/13 02:07:56;;;;;;;3.03;1.57;;;;;;;6.92;100.00;96243.31;5036461;28;20573;-69
2024/02/13 02:10:23;;;;;;;5.93;1.83;;;;;;;6.87;100.00;96253.44;5036399;28;20205;-69
2024/02/13 02:12:50;;;;;;;4.17;1.63;;;;;;;6.81;100.00;96245.34;5035703;28;20205;-69
2024/02/13 02:15:17;;;;;;;1.30;1.20;;;;;;;6.70;100.00;96254.28;5036477;28;20209;-69
2024/02/13 02:17:51;;;;;;;1.43;1.30;;;;;;;7.15;100.00;96254.09;5037174;28;20196;-69
2024/02/13 02:20:18;;;;;;;3.37;1.77;;;;;;;6.98;100.00;96252.38;5035779;28;20215;-69
2024/02/13 02:22:45;;;;;;;2.87;1.60;;;;;;;6.81;100.00;96259.28;5036346;28;20224;-69
2024/02/13 02:25:13;;;;;;;8.07;1.27;;;;;;;7.02;100.00;96259.75;5035667;28;21092;-69
2024/02/13 02:27:40;;;;;;;3.03;1.50;;;;;;;7.10;100.00;96262.41;5037576;28;20288;-69
2024/02/13 02:30:08;;;;;;;2.63;1.47;;;;;;;6.73;100.00;96259.25;5035745;28;20203;-69
2024/02/13 02:32:35;;;;;;;2.27;1.30;;;;;;;6.94;100.00;96266.75;5035003;28;20573;-69
2024/02/13 02:35:01;;;;;;;5.20;1.80;;;;;;;6.95;100.00;96263.13;5036266;28;20197;-68
2024/02/13 02:37:28;;;;;;;2.40;1.27;;;;;;;6.97;100.00;96266.44;5036287;28;20247;-69
2024/02/13 02:39:54;;;;;;;5.93;1.70;;;;;;;6.98;100.00;96268.09;5034607;28;20522;-69
2024/02/13 02:42:23;;;;;;;1.80;1.07;;;;;;;7.34;100.00;96271.25;5035813;28;20225;-69
2024/02/13 02:44:50;;;;;;;2.07;1.33;;;;;;;7.15;100.00;96269.81;5035461;28;20217;-68
2024/02/13 02:47:18;;;;;;;4.00;1.53;;;;;;;7.20;100.00;96283.28;5035693;28;20574;-69
2024/02/13 02:49:44;;;;;;;2.90;1.63;;;;;;;7.16;100.00;96290.63;5034536;28;20201;-69
2024/02/13 02:52:11;;;;;;;5.03;1.37;;;;;;;7.25;100.00;96294.13;5035526;28;20235;-69
2024/02/13 02:54:41;;;;;;;2.40;1.30;;;;;;;6.95;100.00;96297.19;5036220;28;20233;-69
2024/02/13 02:57:08;;;;;;;2.63;1.10;;;;;;;7.11;100.00;96298.13;5036201;28;20659;-69
2024/02/13 02:59:36;;;;;;;3.53;1.00;;;;;;;7.36;100.00;96305.16;5036192;28;21075;-69
2024/02/13 03:02:02;;;;;;;3.80;1.30;;;;;;;7.29;100.00;96309.34;5036039;28;20224;-69
2024/02/13 03:04:29;;;;;;;4.60;1.50;;;;;;;7.32;100.00;96320.38;5035555;28;20228;-69
2024/02/13 03:06:55;;;;;;;2.30;1.10;;;;;;;7.32;100.00;96319.56;5036744;28;20201;-69
2024/02/13 03:09:23;;;;;;;2.97;1.30;;;;;;;7.35;100.00;96322.66;5035958;28;20218;-69
2024/02/13 03:11:49;;;;;;;1.93;1.10;;;;;;;7.32;100.00;96322.97;5035288;28;20228;-69
2024/02/13 03:14:16;;;;;;;2.53;1.10;;;;;;;7.16;100.00;96329.91;5035822;28;20821;-69
2024/02/13 03:16:45;;;;;;;2.13;1.30;;;;;;;7.54;100.00;96338.19;5036597;28;20212;-69
2024/02/13 03:19:12;;;;;;;6.60;1.47;;;;;;;7.25;100.00;96343.91;5035615;28;20691;-67
2024/02/13 03:21:38;;;;;;;3.87;1.47;;;;;;;6.98;100.00;96341.44;5034629;28;20224;-67
2024/02/13 03:24:06;;;;;;;4.37;1.33;;;;;;;6.98;100.00;96352.72;5036423;28;20228;-67
2024/02/13 03:26:32;;;;;;;4.40;1.47;;;;;;;7.11;100.00;96352.31;5039527;28;20656;-67
2024/02/13 03:28:59;;;;;;;5.77;1.13;;;;;;;6.90;100.00;96354.47;5040468;28;20201;-67
2024/02/13 03:31:25;;;;;;;1.83;1.40;;;;;;;7.17;100.00;96354.34;5039829;28;20221;-67
2024/02/13 03:33:53;;;;;;;2.30;1.17;;;;;;;7.32;100.00;96345.75;5039684;28;20212;-67
2024/02/13 03:36:20;;;;;;;3.17;1.87;;;;;;;7.28;100.00;96342.63;5039349;28;20212;-67
2024/02/13 03:38:48;;;;;;;6.90;1.37;;;;;;;7.29;100.00;96351.28;5040044;28;20201;-67
2024/02/13 03:41:14;;;;;;;3.53;1.77;;;;;;;7.35;100.00;96350.69;5040023;28;20256;-67
2024/02/13 03:43:43;;;;;;;10.73;1.60;;;;;;;7.19;100.00;96355.81;5039466;28;20602;-67
2024/02/13 03:46:10;;;;;;;2.53;1.77;;;;;;;7.32;100.00;96356.25;5039408;28;20201;-67
2024/02/13 03:48:37;;;;;;;2.30;1.57;;;;;;;7.35;100.00;96354.13;5038360;28;20416;-67
2024/02/13 03:51:06;;;;;;;2.33;1.60;;;;;;;7.45;100.00;96364.53;5037941;28;20237;-67
2024/02/13 03:53:34;;;;;;;2.53;1.63;;;;;;;7.23;100.00;96366.81;5039373;28;20205;-67
2024/02/13 03:56:01;;;;;;;5.17;1.40;;;;;;;7.21;100.00;96359.13;5039753;28;20201;-67
2024/02/13 03:58:28;;;;;;;3.13;1.60;;;;;;;7.17;100.00;96368.25;5038997;28;20649;-68
2024/02/13 04:00:55;;;;;;;3.83;1.60;;;;;;;7.06;100.00;96365.06;5039255;28;20213;-68
2024/02/13 04:03:26;;;;;;;10.70;3.40;;;;;;;6.99;100.00;96375.31;5038922;28;20211;-67
2024/02/13 04:05:53;;;;;;;23.83;8.13;;;;;;;6.79;100.00;96373.03;5039761;28;20236;-67
2024/02/13 04:08:21;;;;;;;20.70;7.33;;;;;;;7.05;100.00;96368.66;5039370;28;20205;-67
2024/02/13 04:10:47;;;;;;;9.83;4.13;;;;;;;6.81;100.00;96364.06;5038221;28;20596;-67
2024/02/13 04:13:14;;;;;;;7.40;2.80;;;;;;;6.81;100.00;96357.97;5039408;28;20209;-67
2024/02/13 04:15:40;;;;;;;6.23;2.60;;;;;;;6.85;100.00;96367.19;5038795;28;20205;-67
2024/02/13 04:18:08;;;;;;;13.27;5.20;;;;;;;6.76;100.00;96370.72;5039701;28;20319;-67
2024/02/13 04:20:35;;;;;;;15.70;5.67;;;;;;;6.88;100.00;96367.69;5037933;28;20232;-67
2024/02/13 04:23:03;;;;;;;12.80;3.93;;;;;;;6.90;100.00;96367.56;5038528;28;20670;-67
2024/02/13 04:25:31;;;;;;;7.97;2.60;;;;;;;7.10;100.00;96376.88;5038822;28;20232;-67
2024/02/13 04:27:58;;;;;;;4.20;2.50;;;;;;;6.93;100.00;96375.13;5038923;28;20216;-67
2024/02/13 04:30:25;;;;;;;9.53;2.50;;;;;;;6.97;100.00;96379.88;5037714;28;20225;-67
2024/02/13 04:32:51;;;;;;;3.90;1.60;;;;;;;6.90;100.00;96372.81;5038758;28;20203;-67
2024/02/13 04:35:18;;;;;;;6.00;1.90;;;;;;;6.96;100.00;96374.81;5039653;28;20299;-67
2024/02/13 04:37:44;;;;;;;6.27;2.63;;;;;;;6.99;100.00;96374.53;5037511;28;20259;-67
2024/02/13 04:40:12;;;;;;;7.23;2.67;;;;;;;6.97;100.00;96382.50;5038446;28;20201;-67
2024/02/13 04:42:40;;;;;;;4.20;1.80;;;;;;;7.11;100.00;96373.28;5038390;28;20205;-67
2024/02/13 04:45:07;;;;;;;3.70;2.00;;;;;;;7.01;100.00;96377.78;5038643;28;20722;-67
2024/02/13 04:47:34;;;;;;;2.87;1.57;;;;;;;6.87;100.00;96381.78;5037400;28;20923;-67
2024/02/13 04:50:02;;;;;;;6.63;2.20;;;;;;;6.84;100.00;96378.63;5038172;28;20204;-67
2024/02/13 04:52:29;;;;;;;6.13;3.00;;;;;;;6.87;100.00;96380.94;5037957;28;20861;-67
2024/02/13 04:54:56;;;;;;;8.00;2.50;;;;;;;6.80;100.00;96372.06;5038069;28;20197;-67
2024/02/13 04:57:24;;;;;;;10.20;3.50;;;;;;;6.59;100.00;96379.38;5037989;28;20205;-67
2024/02/13 04:59:52;;;;;;;13.23;3.90;;;;;;;6.74;100.00;96386.56;5037689;28;20589;-67
2024/02/13 05:02:21;;;;;;;5.43;2.30;;;;;;;6.53;100.00;96387.00;5037922;28;20229;-67
2024/02/13 05:07:32;;;;;;;3.17;2.00;;;;;;;6.46;100.00;96406.91;5037993;28;20212;-67
2024/02/13 05:10:01;;;;;;;4.07;1.73;;;;;;;6.56;100.00;96399.81;5037326;28;20205;-67
2024/02/13 05:12:28;;;;;;;6.30;2.00;;;;;;;6.57;100.00;96402.28;5038000;28;20225;-67
2024/02/13 05:14:58;;;;;;;8.30;2.17;;;;;;;6.59;100.00;96408.19;5037932;28;20579;-68
2024/02/13 05:17:26;;;;;;;8.00;2.67;;;;;;;6.36;100.00;96406.94;5038221;28;20205;-67
2024/02/13 05:19:53;;;;;;;2.47;1.70;;;;;;;6.26;100.00;96415.84;5036749;28;20237;-67
2024/02/13 05:22:20;;;;;;;2.30;1.20;;;;;;;6.24;100.00;96418.59;5037237;28;20228;-67
2024/02/13 05:24:48;;;;;;;4.57;1.83;;;;;;;6.25;100.00;96420.25;5037358;28;20217;-68
2024/02/13 05:27:15;;;;;;;2.70;1.40;;;;;;;5.99;100.00;96420.25;5037295;28;20229;-67
2024/02/13 05:29:43;;;;;;;2.97;1.67;;;;;;;5.96;100.00;96428.38;5037697;28;20211;-67
2024/02/13 05:32:11;;;;;;;5.73;1.60;;;;;;;6.07;100.00;96416.78;5037649;28;20316;-67
2024/02/13 05:34:37;;;;;;;6.27;1.70;;;;;;;5.84;100.00;96417.31;5038098;28;20311;-67
2024/02/13 05:37:05;;;;;;;5.53;1.80;;;;;;;5.69;100.00;96420.47;5037283;28;20671;-68
2024/02/13 05:39:31;;;;;;;3.77;1.67;;;;;;;5.72;100.00;96431.47;5038301;28;20490;-67
2024/02/13 05:41:58;;;;;;;2.23;1.63;;;;;;;5.65;100.00;96429.56;5036825;28;20239;-67
2024/02/13 05:44:25;;;;;;;5.97;1.90;;;;;;;5.65;100.00;96429.56;5037315;28;20232;-67
2024/02/13 05:46:52;;;;;;;4.90;1.60;;;;;;;5.57;100.00;96432.91;5037842;28;20618;-67
2024/02/13 05:49:20;;;;;;;4.20;1.63;;;;;;;5.77;100.00;96431.91;5036760;28;20205;-67
2024/02/13 05:51:46;;;;;;;4.77;2.20;;;;;;;5.60;100.00;96442.25;5035969;28;20239;-69
2024/02/13 05:54:14;;;;;;;4.83;1.70;;;;;;;5.55;100.00;96447.09;5037190;28;20207;-67
2024/02/13 05:56:41;;;;;;;4.27;2.17;;;;;;;5.48;100.00;96448.63;5037105;28;20204;-67
2024/02/13 05:59:09;;;;;;;6.03;1.70;;;;;;;5.43;100.00;96450.81;5037283;28;20200;-67
2024/02/13 06:01:35;;;;;;;4.13;1.73;;;;;;;5.51;100.00;96443.09;5037480;28;20389;-67
2024/02/13 06:04:05;;;;;;;5.47;2.00;;;;;;;5.49;100.00;96445.84;5036325;28;20893;-67
2024/02/13 06:06:36;;;;;;;4.33;1.40;;;;;;;5.63;100.00;96447.22;5037148;28;20563;-67
2024/02/13 06:09:03;;;;;;;3.03;1.60;;;;;;;5.52;100.00;96444.75;5037687;28;20204;-69
2024/02/13 06:11:31;;;;;;;5.50;1.57;;;;;;;5.42;100.00;96454.38;5036302;28;20228;-68
2024/02/13 06:13:58;;;;;;;3.87;2.27;;;;;;;5.45;100.00;96467.19;5037711;28;20197;-69
2024/02/13 06:16:25;;;;;;;1.43;1.20;;;;;;;5.47;100.00;96454.78;5036458;28;20223;-68
2024/02/13 06:18:51;;;;;;;2.77;1.30;;;;;;;5.39;100.00;96459.91;5037188;28;20201;-68
2024/02/13 06:21:19;;;;;;;3.00;1.23;;;;;;;5.12;100.00;96467.63;5036032;28;21024;-67
2024/02/13 06:23:49;;;;;;;1.63;1.00;;;;;;;5.23;100.00;96464.06;5037365;28;20203;-68
2024/02/13 06:26:15;;;;;;;5.33;2.03;;;;;;;5.00;100.00;96473.97;5037221;28;20228;-68
2024/02/13 06:28:42;;;;;;;4.47;1.37;;;;;;;4.72;100.00;96479.16;5037382;28;20208;-68
2024/02/13 06:31:08;;;;;;;2.87;1.83;;;;;;;4.78;100.00;96483.03;5036848;28;20224;-70
2024/02/13 06:33:34;;;;;;;6.57;2.10;;;;;;;4.86;100.00;96487.44;5037441;28;20205;-69
2024/02/13 06:36:01;;;;;;;6.93;1.80;;;;;;;4.92;100.00;96489.47;5037425;28;20200;-68
2024/02/13 06:38:28;;;;;;;6.53;2.53;;;;;;;4.84;100.00;96483.31;5037037;28;20214;-70
2024/02/13 06:40:56;;;;;;;8.93;2.83;;;;;;;5.03;100.00;96491.16;5036460;28;20219;-69
2024/02/13 06:43:23;;;;;;;7.77;2.33;;;;;;;4.88;100.00;96495.13;5037333;28;20208;-69
2024/02/13 06:45:50;;;;;;;8.70;2.53;;;;;;;4.92;100.00;96502.53;5036897;28;20217;-69
2024/02/13 06:48:17;;;;;;;7.47;3.07;;;;;;;4.92;100.00;96505.16;5037067;28;20213;-69
2024/02/13 06:50:44;;;;;;;9.53;3.20;;;;;;;4.95;100.00;96496.22;5035421;28;20627;-70
2024/02/13 06:53:10;;;;;;;11.70;4.97;;;;;;;4.99;100.00;96500.22;5036469;28;20211;-70
2024/02/13 06:55:37;;;;;;;13.50;4.90;;;;;;;4.97;100.00;96500.34;5036876;28;20579;-69
2024/02/13 06:58:05;;;;;;;17.97;4.50;;;;;;;5.11;100.00;96497.31;5037632;28;20200;-69
2024/02/13 07:00:32;;;;;;;11.10;3.67;;;;;;;4.91;100.00;96506.13;5035548;28;20228;-69
2024/02/13 07:02:59;;;;;;;6.33;3.27;;;;;;;4.79;100.00;96518.63;5036800;28;20210;-69
2024/02/13 07:05:26;;;;;;;8.73;3.40;;;;;;;4.84;100.00;96515.47;5036576;28;20232;-70
2024/02/13 07:07:53;;;;;;;9.87;3.30;;;;;;;4.73;100.00;96516.56;5036169;28;20251;-69
2024/02/13 07:10:19;;;;;;;14.17;3.23;;;;;;;4.66;100.00;96521.47;5035474;28;20223;-70
2024/02/13 07:12:46;;;;;;;7.30;3.00;;;;;;;4.77;100.00;96517.94;5037772;28;20213;-68
2024/02/13 07:15:14;;;;;;;7.13;2.40;;;;;;;4.93;100.00;96516.44;5036836;28;20206;-70
2024/02/13 07:17:40;;;;;;;7.60;1.97;;;;;;;4.79;100.00;96518.63;5035905;28;20208;-69
2024/02/13 07:20:10;;;;;;;6.50;1.77;;;;;;;5.02;100.00;96526.88;5036081;28;20218;-70
2024/02/13 07:22:37;;;;;;;3.63;1.50;;;;;;;4.93;100.00;96525.09;5036337;28;20566;-69
2024/02/13 07:25:05;;;;;;;5.70;2.50;;;;;;;5.03;100.00;96525.13;5036480;28;20335;-70
2024/02/13 07:27:32;;;;;;;6.53;2.83;;;;;;;4.92;100.00;96526.03;5037000;28;20549;-69
2024/02/13 07:29:59;;;;;;;3.63;1.83;;;;;;;5.07;100.00;96527.28;5036190;28;20308;-69
2024/02/13 07:32:26;;;;;;;5.93;2.17;;;;;;;5.25;100.00;96530.88;5036258;28;20315;-69
2024/02/13 07:34:53;;;;;;;3.70;1.90;;;;;;;5.21;100.00;96529.50;5037028;28;20606;-70
2024/02/13 07:37:20;;;;;;;4.90;2.27;;;;;;;5.32;100.00;96536.38;5036240;28;20212;-69
2024/02/13 07:39:47;;;;;;;4.50;1.63;;;;;;;5.41;100.00;96540.75;5035882;28;21250;-68
2024/02/13 07:42:13;;;;;;;5.50;1.93;;;;;;;5.47;100.00;96534.03;5035909;28;20235;-69
2024/02/13 07:44:40;;;;;;;3.40;1.60;;;;;;;5.56;100.00;96541.03;5035848;28;20229;-69
2024/02/13 07:47:07;;;;;;;6.07;1.97;;;;;;;5.68;100.00;96539.91;5035411;28;20298;-69
2024/02/13 07:49:35;;;;;;;6.13;2.43;;;;;;;5.92;100.00;96542.09;5035648;28;20213;-69
2024/02/13 07:52:02;;;;;;;5.63;2.13;;;;;;;6.01;100.00;96543.84;5034909;28;20233;-69
2024/02/13 07:54:28;;;;;;;3.00;1.60;;;;;;;5.99;100.00;96540.56;5036543;28;20207;-69
2024/02/13 07:56:58;;;;;;;2.47;1.30;;;;;;;6.07;100.00;96542.34;5036246;28;20671;-69
2024/02/13 07:59:24;;;;;;;3.83;1.83;;;;;;;6.20;100.00;96542.84;5036548;28;20593;-69
2024/02/13 08:01:51;;;;;;;6.50;2.77;;;;;;;6.39;100.00;96545.41;5036162;28;20227;-69
2024/02/13 08:04:18;;;;;;;7.33;1.63;;;;;;;6.35;100.00;96546.66;5036430;28;20209;-69
2024/02/13 08:06:46;;;;;;;6.37;1.70;;;;;;;6.58;100.00;96552.31;5036294;28;20236;-69
2024/02/13 08:09:14;;;;;;;5.87;1.50;;;;;;;6.46;100.00;96553.50;5036244;28;20577;-69
2024/02/13 08:11:41;;;;;;;4.57;2.40;;;;;;;6.31;100.00;96555.75;5036151;28;20340;-69
2024/02/13 08:14:09;;;;;;;2.83;1.90;;;;;;;6.41;100.00;96561.75;5040268;28;20229;-69
2024/02/13 08:16:35;;;;;;;2.93;1.90;;;;;;;6.46;100.00;96563.97;5040347;28;20735;-69
2024/02/13 08:19:02;;;;;;;5.43;2.30;;;;;;;6.67;100.00;96568.00;5039711;28;20557;-69
2024/02/13 08:21:29;;;;;;;5.10;2.33;;;;;;;6.44;100.00;96568.50;5038047;28;20221;-69
2024/02/13 08:23:57;;;;;;;4.47;1.60;;;;;;;6.75;100.00;96570.72;5040432;28;20654;-69
2024/02/13 08:26:23;;;;;;;6.30;1.60;;;;;;;6.75;100.00;96575.94;5038991;28;20221;-69
2024/02/13 08:28:50;;;;;;;2.13;1.27;;;;;;;6.82;100.00;96577.00;5038206;28;20210;-69
2024/02/13 08:31:17;;;;;;;3.40;1.73;;;;;;;6.84;100.00;96569.84;5038332;28;20261;-69
2024/02/13 08:33:44;;;;;;;3.63;1.53;;;;;;;6.96;100.00;96573.88;5039309;28;20205;-69
2024/02/13 08:36:11;;;;;;;6.20;2.33;;;;;;;6.98;100.00;96571.97;5038619;28;20231;-69
2024/02/13 08:38:40;;;;;;;3.23;1.80;;;;;;;6.95;100.00;96567.84;5038748;28;20213;-69
2024/02/13 08:41:08;;;;;;;4.37;2.40;;;;;;;7.40;100.00;96558.16;5037563;28;20252;-69
2024/02/13 08:43:35;;;;;;;12.37;2.90;;;;;;;7.29;100.00;96563.59;5038722;28;20219;-69
2024/02/13 08:46:02;;;;;;;9.57;2.67;;;;;;;7.48;100.00;96561.63;5038358;28;20231;-69
2024/02/13 08:48:29;;;;;;;5.30;2.40;;;;;;;7.43;100.00;96558.69;5038548;28;20204;-69
2024/02/13 08:50:56;;;;;;;4.67;2.07;;;;;;;7.66;100.00;96564.25;5037251;28;20233;-69
2024/02/13 08:53:24;;;;;;;4.67;1.93;;;;;;;7.78;100.00;96555.16;5037769;28;20201;-69
2024/02/13 08:55:51;;;;;;;3.43;1.57;;;;;;;7.86;100.00;96558.69;5038918;28;20213;-68
2024/02/13 08:58:19;;;;;;;1.90;1.17;;;;;;;8.07;100.00;96559.16;5038962;28;20308;-68
2024/02/13 09:00:46;;;;;;;10.63;2.23;;;;;;;7.81;100.00;96560.13;5037722;28;20236;-69
2024/02/13 09:03:12;;;;;;;2.87;1.20;;;;;;;7.77;100.00;96564.84;5039444;28;20208;-68
2024/02/13 09:05:39;;;;;;;4.83;2.20;;;;;;;7.66;100.00;96570.34;5038598;28;20596;-68
2024/02/13 09:08:06;;;;;;;2.83;1.00;;;;;;;7.96;100.00;96568.13;5038898;28;20302;-68
2024/02/13 09:10:33;;;;;;;2.70;1.20;;;;;;;8.03;100.00;96565.69;5037625;28;20229;-68
2024/02/13 09:12:59;;;;;;;1.57;1.20;;;;;;;7.89;100.00;96567.09;5038425;28;20201;-68
2024/02/13 09:15:29;;;;;;;2.57;1.07;;;;;;;7.98;100.00;96570.59;5039057;28;20208;-68
2024/02/13 09:17:56;;;;;;;1.20;1.00;;;;;;;7.91;100.00;96569.56;5038308;28;20279;-68
2024/02/13 09:20:22;;;;;;;3.67;1.37;;;;;;;7.93;100.00;96565.81;5037752;28;20989;-69
2024/02/13 09:22:50;;;;;;;6.47;1.53;;;;;;;8.30;100.00;96568.19;5037518;28;20513;-68
2024/02/13 09:25:19;;;;;;;4.00;1.47;;;;;;;8.62;100.00;96561.34;5038508;28;20282;-68
2024/02/13 09:27:47;;;;;;;2.40;1.33;;;;;;;8.81;100.00;96564.53;5037813;28;20296;-69
2024/02/13 09:30:15;;;;;;;4.90;1.50;;;;;;;8.98;100.00;96555.72;5038011;28;20220;-68
2024/02/13 09:32:43;;;;;;;7.40;1.70;;;;;;;9.28;100.00;96553.34;5038410;28;20296;-70
2024/02/13 09:35:10;;;;;;;2.57;1.20;;;;;;;9.11;100.00;96556.09;5038630;28;20204;-69
2024/02/13 09:37:39;;;;;;;1.60;1.10;;;;;;;9.02;100.00;96558.88;5038083;28;20209;-68
2024/02/13 09:40:13;;;;;;;3.23;1.40;;;;;;;8.95;100.00;96566.56;5037895;28;20203;-69
2024/02/13 09:42:40;;;;;;;2.20;1.30;;;;;;;8.76;100.00;96568.63;5038081;28;20259;-69
2024/02/13 09:45:08;;;;;;;5.73;1.47;;;;;;;8.92;100.00;96564.22;5036445;28;20235;-69
2024/02/13 09:47:37;;;;;;;3.77;1.20;;;;;;;9.20;100.00;96573.53;5038631;28;20296;-69
2024/02/13 09:50:07;;;;;;;2.20;1.17;;;;;;;8.92;100.00;96572.13;5036219;28;20201;-69
2024/02/13 09:52:35;;;;;;;2.67;1.00;;;;;;;8.96;100.00;96578.72;5036848;28;20208;-69
2024/02/13 09:55:01;;;;;;;2.20;1.13;;;;;;;9.08;100.00;96577.44;5037888;28;20205;-70
2024/02/13 09:57:28;;;;;;;1.83;1.27;;;;;;;9.21;100.00;96569.91;5037812;28;20210;-68
2024/02/13 09:59:56;;;;;;;6.73;1.00;;;;;;;9.32;100.00;96567.00;5036525;28;20751;-69
2024/02/13 10:02:28;;;;;;;3.10;1.43;;;;;;;9.45;100.00;96573.41;5036601;28;20300;-70
2024/02/13 10:04:55;;;;;;;1.83;1.23;;;;;;;9.54;100.00;96563.75;5037238;28;20255;-69
2024/02/13 10:07:23;;;;;;;4.83;1.33;;;;;;;9.74;100.00;96573.78;5036521;28;20707;-70
2024/02/13 10:09:50;;;;;;;6.43;1.70;;;;;;;9.75;100.00;96576.25;5037115;28;20287;-68
2024/02/13 10:12:17;;;;;;;1.67;1.27;;;;;;;9.72;100.00;96581.84;5036372;28;20232;-69
2024/02/13 10:14:44;;;;;;;2.40;0.80;;;;;;;9.66;100.00;96575.59;5036863;28;20228;-69
2024/02/13 10:17:11;;;;;;;3.87;1.80;;;;;;;9.86;100.00;96583.00;5036616;28;20204;-68
2024/02/13 10:19:38;;;;;;;3.07;1.20;;;;;;;10.08;100.00;96577.94;5037194;28;20205;-69
2024/02/13 10:22:06;;;;;;;1.27;0.80;;;;;;;10.15;100.00;96573.66;5035346;28;20231;-68
2024/02/13 10:24:34;;;;;;;2.67;1.10;;;;;;;10.09;100.00;96578.75;5037125;28;20205;-70
2024/02/13 10:27:00;;;;;;;3.40;0.90;;;;;;;10.09;100.00;96574.28;5037248;28;20228;-68
2024/02/13 10:29:27;;;;;;;4.43;1.00;;;;;;;10.29;100.00;96580.06;5037206;28;20215;-68
2024/02/13 10:32:05;;;;;;;3.60;0.80;;;;;;;10.75;100.00;96572.19;5036805;28;20229;-68
2024/02/13 10:34:36;;;;;;;2.33;0.70;;;;;;;10.49;100.00;96564.53;5036685;28;20223;-67
2024/02/13 10:37:07;;;;;;;0.67;0.53;;;;;;;10.71;100.00;96568.25;5036802;28;20194;-67
2024/02/13 10:39:37;;;;;;;1.50;0.80;;;;;;;10.77;97.89;96570.19;5036840;28;20200;-68
2024/02/13 10:42:09;;;;;;;1.00;0.80;;;;;;;10.63;96.99;96566.47;5036744;28;20224;-67
2024/02/13 10:44:43;;;;;;;2.33;0.70;;;;;;;10.75;95.59;96572.19;5036605;28;20205;-67
2024/02/13 10:47:11;;;;;;;0.50;0.50;;;;;;;10.79;93.47;96569.03;5036985;28;20224;-68
2024/02/13 10:49:49;;;;;;;2.63;0.90;;;;;;;10.88;93.97;96575.13;5036595;28;20263;-68
2024/02/13 10:52:17;;;;;;;7.73;1.00;;;;;;;11.12;94.32;96576.66;5035589;28;20659;-67
2024/02/13 10:54:47;;;;;;;5.67;1.30;;;;;;;10.96;90.68;96581.19;5036464;28;20209;-67
2024/02/13 10:57:15;;;;;;;3.17;0.87;;;;;;;10.85;91.16;96580.75;5034228;28;20197;-67
2024/02/13 10:59:43;;;;;;;1.83;0.70;;;;;;;10.35;92.18;96580.22;5036751;28;20221;-67
2024/02/13 11:02:13;;;;;;;4.17;1.00;;;;;;;10.66;90.42;96575.84;5035501;28;20217;-68
2024/02/13 11:04:43;;;;;;;2.00;0.53;;;;;;;10.82;89.85;96571.34;5036027;28;20295;-68
2024/02/13 11:07:10;;;;;;;1.20;0.60;;;;;;;11.07;87.08;96579.00;5036286;28;20782;-67
2024/02/13 11:09:38;;;;;;;3.83;0.93;;;;;;;11.39;87.14;96576.19;5037546;28;20215;-68
2024/02/13 11:12:08;;;;;;;4.73;1.03;;;;;;;11.43;85.30;96574.84;5034474;28;20935;-69
2024/02/13 11:14:35;;;;;;;2.93;0.80;;;;;;;11.35;84.35;96566.97;5036654;28;20205;-67
2024/02/13 11:17:08;;;;;;;5.50;1.30;;;;;;;11.47;85.05;96570.03;5036344;28;20193;-67
2024/02/13 11:19:38;;;;;;;4.47;0.60;;;;;;;11.04;81.45;96574.06;5035518;28;20201;-67
2024/02/13 11:22:08;;;;;;;5.83;1.83;;;;;;;11.19;80.88;96572.34;5034610;28;20217;-68
2024/02/13 11:24:41;;;;;;;3.33;0.87;;;;;;;10.99;80.53;96568.47;5035836;28;20205;-67
2024/02/13 11:27:14;;;;;;;2.53;0.80;;;;;;;11.09;83.03;96561.19;5035962;28;20300;-68
2024/02/13 11:29:41;;;;;;;3.47;1.13;;;;;;;11.05;82.20;96559.88;5036377;28;20798;-67
2024/02/13 11:32:08;;;;;;;1.00;0.83;;;;;;;11.03;80.63;96567.13;5035252;28;20220;-68
2024/02/13 11:34:41;;;;;;;5.13;2.00;;;;;;;11.42;81.04;96567.09;5036378;28;20212;-67